createdAt,value
2018-12-12T00:00:59.662Z,99.90
2018-12-12T00:03:28.325Z,99.90
2018-12-12T00:05:57.038Z,99.90
2018-12-12T00:08:25.752Z,99.90
2018-12-12T00:10:54.414Z,99.90
2018-12-12T00:13:23.086Z,99.90
2018-12-12T00:15:51.776Z,99.90
2018-12-12T00:18:20.439Z,99.90
2018-12-12T00:20:49.153Z,99.90
2018-12-12T00:23:17.852Z,99.90
2018-12-12T00:25:46.564Z,99.90
2018-12-12T00:28:15.271Z,99.90
2018-12-12T00:30:43.938Z,99.90
2018-12-12T00:33:12.625Z,99.90
2018-12-12T00:35:41.329Z,99.90
2018-12-12T00:38:10.054Z,99.90
2018-12-12T00:40:38.753Z,99.90
2018-12-12T00:43:07.498Z,99.90
2018-12-12T00:45:36.220Z,99.90
2018-12-12T00:48:05.070Z,99.90
2018-12-12T00:50:34.013Z,99.90
2018-12-12T00:53:02.692Z,99.90
2018-12-12T00:55:31.377Z,99.90
2018-12-12T00:58:00.083Z,99.90
2018-12-12T01:00:28.768Z,99.90
2018-12-12T01:02:57.432Z,99.90
2018-12-12T01:05:26.176Z,99.90
2018-12-12T01:07:54.861Z,99.90
2018-12-12T01:10:23.529Z,99.90
2018-12-12T01:12:52.708Z,99.90
2018-12-12T01:15:21.368Z,99.90
2018-12-12T01:17:50.052Z,99.90
2018-12-12T01:20:18.838Z,99.90
2018-12-12T01:22:47.644Z,99.90
2018-12-12T01:25:16.310Z,99.90
2018-12-12T01:27:44.955Z,99.90
2018-12-12T01:30:13.669Z,99.90
2018-12-12T01:32:42.332Z,99.90
2018-12-12T01:35:11.203Z,99.90
2018-12-12T01:37:39.905Z,99.90
2018-12-12T01:40:08.582Z,99.90
2018-12-12T01:42:37.273Z,99.90
2018-12-12T01:45:05.969Z,99.90
2018-12-12T01:47:34.661Z,99.90
2018-12-12T01:50:03.720Z,99.90
2018-12-12T01:52:32.378Z,99.90
2018-12-12T01:55:01.088Z,99.90
2018-12-12T01:57:29.767Z,99.90
2018-12-12T01:59:58.427Z,99.90
2018-12-12T02:02:27.084Z,99.90
2018-12-12T02:04:55.820Z,99.90
2018-12-12T02:07:24.767Z,99.90
2018-12-12T02:09:53.747Z,99.90
2018-12-12T02:12:22.432Z,99.90
2018-12-12T02:14:51.144Z,99.90
2018-12-12T02:17:19.811Z,99.90
2018-12-12T02:19:48.510Z,99.90
2018-12-12T02:22:17.220Z,99.90
2018-12-12T02:24:45.872Z,99.90
2018-12-12T02:27:14.531Z,99.90
2018-12-12T02:29:43.227Z,99.90
2018-12-12T02:32:11.958Z,99.90
2018-12-12T02:34:40.646Z,99.90
2018-12-12T02:37:09.351Z,99.90
2018-12-12T02:39:38.081Z,99.90
2018-12-12T02:42:06.763Z,99.90
2018-12-12T02:44:35.691Z,99.90
2018-12-12T02:47:04.401Z,99.90
2018-12-12T02:49:33.113Z,99.90
2018-12-12T02:52:01.850Z,99.90
2018-12-12T02:54:30.531Z,99.90
2018-12-12T02:56:59.229Z,99.90
2018-12-12T02:59:27.903Z,99.90
2018-12-12T03:01:56.601Z,99.90
2018-12-12T03:04:25.301Z,99.90
2018-12-12T03:06:55.588Z,99.90
2018-12-12T03:09:24.289Z,99.90
2018-12-12T03:11:52.940Z,99.90
2018-12-12T03:14:21.628Z,99.90
2018-12-12T03:16:50.321Z,99.90
2018-12-12T03:19:19.002Z,99.90
2018-12-12T03:21:47.969Z,99.90
2018-12-12T03:24:16.914Z,99.90
2018-12-12T03:26:45.572Z,99.90
2018-12-12T03:29:14.241Z,99.90
2018-12-12T03:31:42.918Z,99.90
2018-12-12T03:34:11.609Z,99.90
2018-12-12T03:36:40.304Z,99.90
2018-12-12T03:39:08.993Z,99.90
2018-12-12T03:41:37.817Z,99.90
2018-12-12T03:44:06.507Z,99.90
2018-12-12T03:46:35.203Z,99.90
2018-12-12T03:49:03.910Z,99.90
2018-12-12T03:51:32.606Z,99.90
2018-12-12T03:54:01.390Z,99.90
2018-12-12T03:56:30.140Z,99.90
2018-12-12T03:58:58.812Z,99.90
2018-12-12T04:01:27.475Z,99.90
2018-12-12T04:03:56.177Z,99.90
2018-12-12T04:06:24.875Z,99.90
2018-12-12T04:08:53.580Z,99.90
2018-12-12T04:11:22.266Z,99.90
2018-12-12T04:13:51.195Z,99.90
2018-12-12T04:16:20.190Z,99.90
2018-12-12T04:18:49.084Z,99.90
2018-12-12T04:21:17.747Z,99.90
2018-12-12T04:23:46.457Z,99.90
2018-12-12T04:26:15.662Z,99.90
2018-12-12T04:28:44.340Z,99.90
2018-12-12T04:31:13.028Z,99.90
2018-12-12T04:33:41.781Z,99.90
2018-12-12T04:36:10.481Z,99.90
2018-12-12T04:38:39.260Z,99.90
2018-12-12T04:41:08.185Z,99.90
2018-12-12T04:43:36.980Z,99.90
2018-12-12T04:46:05.655Z,99.90
2018-12-12T04:48:34.362Z,99.90
2018-12-12T04:51:03.029Z,99.90
2018-12-12T04:53:31.903Z,99.90
2018-12-12T04:56:00.597Z,99.90
2018-12-12T04:58:29.261Z,99.90
2018-12-12T05:00:57.998Z,99.90
2018-12-12T05:03:26.728Z,99.90
2018-12-12T05:05:56.923Z,99.90
2018-12-12T05:08:25.644Z,99.90
2018-12-12T05:10:55.793Z,99.90
2018-12-12T05:13:24.585Z,99.90
2018-12-12T05:15:53.288Z,99.90
2018-12-12T05:18:21.992Z,99.90
2018-12-12T05:20:50.703Z,99.90
2018-12-12T05:23:19.496Z,99.90
2018-12-12T05:25:48.160Z,99.90
2018-12-12T05:28:16.859Z,99.90
2018-12-12T05:30:45.527Z,99.90
2018-12-12T05:33:14.224Z,99.90
2018-12-12T05:35:42.939Z,99.90
2018-12-12T05:38:11.614Z,99.90
2018-12-12T05:40:40.547Z,99.90
2018-12-12T05:43:09.208Z,99.90
2018-12-12T05:45:38.104Z,99.90
2018-12-12T05:48:06.796Z,99.90
2018-12-12T05:50:35.447Z,99.90
2018-12-12T05:53:04.148Z,99.90
2018-12-12T05:55:32.827Z,99.90
2018-12-12T05:58:01.535Z,99.90
2018-12-12T06:00:30.256Z,99.90
2018-12-12T06:02:58.932Z,99.90
2018-12-12T06:05:27.700Z,99.90
2018-12-12T06:07:56.374Z,99.90
2018-12-12T06:10:25.079Z,99.90
2018-12-12T06:12:53.741Z,99.90
2018-12-12T06:15:22.436Z,99.90
2018-12-12T06:17:51.154Z,99.90
2018-12-12T06:20:19.863Z,99.90
2018-12-12T06:22:48.613Z,99.90
2018-12-12T06:25:17.603Z,99.90
2018-12-12T06:27:46.259Z,99.90
2018-12-12T06:30:14.932Z,99.90
2018-12-12T06:32:43.604Z,99.90
2018-12-12T06:35:12.314Z,99.90
2018-12-12T06:37:40.998Z,99.90
2018-12-12T06:40:09.722Z,99.90
2018-12-12T06:42:38.387Z,99.90
2018-12-12T06:45:07.959Z,99.90
2018-12-12T06:47:36.668Z,99.90
2018-12-12T06:50:06.643Z,99.90
2018-12-12T06:52:35.347Z,99.90
2018-12-12T06:55:04.263Z,99.90
2018-12-12T06:57:32.938Z,99.90
2018-12-12T07:00:01.623Z,99.90
2018-12-12T07:02:30.300Z,99.90
2018-12-12T07:04:58.997Z,99.90
2018-12-12T07:07:27.816Z,99.90
2018-12-12T07:09:56.469Z,99.90
2018-12-12T07:12:25.173Z,99.90
2018-12-12T07:14:53.835Z,99.90
2018-12-12T07:17:22.525Z,99.90
2018-12-12T07:19:51.213Z,99.90
2018-12-12T07:22:19.911Z,99.90
2018-12-12T07:24:48.629Z,99.90
2018-12-12T07:27:17.325Z,99.90
2018-12-12T07:29:46.033Z,99.90
2018-12-12T07:32:14.741Z,99.90
2018-12-12T07:34:43.456Z,99.90
2018-12-12T07:37:12.371Z,99.90
2018-12-12T07:39:41.069Z,99.90
2018-12-12T07:42:09.760Z,99.90
2018-12-12T07:44:38.475Z,99.90
2018-12-12T07:47:07.192Z,99.90
2018-12-12T07:49:35.901Z,99.90
2018-12-12T07:52:04.572Z,99.90
2018-12-12T07:54:33.454Z,99.90
2018-12-12T07:57:02.152Z,99.90
2018-12-12T07:59:30.872Z,99.90
2018-12-12T08:01:59.566Z,99.90
2018-12-12T08:04:28.297Z,99.90
2018-12-12T08:06:56.982Z,99.90
2018-12-12T08:09:25.704Z,99.90
2018-12-12T08:11:54.418Z,99.90
2018-12-12T08:14:23.122Z,99.90
2018-12-12T08:16:51.873Z,99.90
2018-12-12T08:19:20.585Z,97.10
2018-12-12T08:21:49.317Z,97.30
2018-12-12T08:24:17.988Z,93.20
2018-12-12T08:26:46.646Z,91.80
2018-12-12T08:29:15.324Z,94.20
2018-12-12T08:31:43.984Z,95.50
2018-12-12T08:34:12.671Z,99.60
2018-12-12T08:36:41.470Z,98.60
2018-12-12T08:39:10.177Z,99.90
2018-12-12T08:41:38.888Z,99.90
2018-12-12T08:44:07.585Z,99.90
2018-12-12T08:46:36.258Z,99.90
2018-12-12T08:49:04.941Z,99.90
2018-12-12T08:51:33.647Z,99.90
2018-12-12T08:54:02.409Z,99.90
2018-12-12T08:56:31.320Z,99.90
2018-12-12T08:59:00.032Z,99.90
2018-12-12T09:01:28.923Z,99.90
2018-12-12T09:03:57.617Z,99.90
2018-12-12T09:06:26.276Z,99.90
2018-12-12T09:08:54.980Z,99.90
2018-12-12T09:11:23.672Z,99.90
2018-12-12T09:13:52.364Z,99.90
2018-12-12T09:16:21.063Z,99.90
2018-12-12T09:18:49.765Z,99.90
2018-12-12T09:21:18.537Z,99.90
2018-12-12T09:23:47.219Z,99.90
2018-12-12T09:26:16.646Z,99.90
2018-12-12T09:28:45.332Z,99.90
2018-12-12T09:31:14.056Z,99.90
2018-12-12T09:33:42.852Z,99.90
2018-12-12T09:36:11.559Z,99.90
2018-12-12T09:38:40.248Z,99.90
2018-12-12T09:41:08.943Z,99.90
2018-12-12T09:43:37.712Z,99.90
2018-12-12T09:46:06.408Z,99.90
2018-12-12T09:48:35.055Z,99.90
2018-12-12T09:51:07.229Z,99.90
2018-12-12T09:53:34.483Z,99.90
2018-12-12T09:56:03.177Z,99.90
2018-12-12T09:58:31.858Z,98.40
2018-12-12T10:01:00.540Z,97.40
2018-12-12T10:03:31.235Z,94.80
2018-12-12T10:05:59.925Z,90.40
2018-12-12T10:08:28.614Z,93.60
2018-12-12T10:10:57.318Z,93.60
2018-12-12T10:13:26.005Z,92.40
2018-12-12T10:15:54.759Z,90.90
2018-12-12T10:18:23.409Z,91.60
2018-12-12T10:20:52.091Z,93.70
2018-12-12T10:23:20.781Z,93.20
2018-12-12T10:25:49.517Z,95.50
2018-12-12T10:28:18.229Z,96.60
2018-12-12T10:30:46.943Z,95.30
2018-12-12T10:33:15.638Z,96.70
2018-12-12T10:35:44.329Z,97.70
2018-12-12T10:38:12.995Z,95.60
2018-12-12T10:40:41.648Z,95.30
2018-12-12T10:43:10.411Z,96.50
2018-12-12T10:45:39.303Z,94.20
2018-12-12T10:48:08.294Z,90.20
2018-12-12T10:50:37.437Z,90.90
2018-12-12T10:53:06.095Z,85.90
2018-12-12T10:55:34.768Z,87.60
2018-12-12T10:58:03.450Z,90.30
2018-12-12T11:00:33.796Z,78.90
2018-12-12T11:03:07.943Z,78.90
2018-12-12T11:05:36.612Z,80.30
2018-12-12T11:08:05.396Z,80.20
2018-12-12T11:10:34.118Z,85.90
2018-12-12T11:13:02.814Z,85.30
2018-12-12T11:15:31.564Z,76.30
2018-12-12T11:18:00.298Z,80.10
2018-12-12T11:20:28.977Z,80.20
2018-12-12T11:22:57.674Z,79.30
2018-12-12T11:25:26.499Z,55.10
2018-12-12T11:27:55.208Z,58.40
2018-12-12T11:30:23.939Z,56.60
2018-12-12T11:32:52.596Z,64.90
2018-12-12T11:35:21.282Z,71.00
2018-12-12T11:37:49.949Z,73.90
2018-12-12T11:40:18.618Z,59.40
2018-12-12T11:42:47.291Z,64.30
2018-12-12T11:45:16.032Z,56.80
2018-12-12T11:47:44.979Z,49.50
2018-12-12T11:50:13.661Z,21.30
2018-12-12T11:52:42.383Z,4.60
2018-12-12T11:55:11.062Z,1.00
2018-12-12T11:57:40.176Z,1.00
2018-12-12T12:00:10.079Z,1.00
2018-12-12T12:02:38.818Z,1.00
2018-12-12T12:05:07.504Z,1.00
2018-12-12T12:07:36.208Z,1.00
2018-12-12T12:10:06.944Z,1.00
2018-12-12T12:12:35.731Z,1.00
2018-12-12T12:15:05.914Z,1.00
2018-12-12T12:17:34.615Z,1.00
2018-12-12T12:20:03.416Z,1.00
2018-12-12T12:22:32.382Z,1.00
2018-12-12T12:25:01.071Z,1.00
2018-12-12T12:27:29.784Z,1.00
2018-12-12T12:29:58.490Z,1.00
2018-12-12T12:32:27.213Z,1.00
2018-12-12T12:34:55.941Z,1.00
2018-12-12T12:37:24.657Z,1.00
2018-12-12T12:39:53.516Z,1.00
2018-12-12T12:42:22.390Z,3.50
2018-12-12T12:44:51.469Z,8.40
2018-12-12T12:47:20.135Z,9.70
2018-12-12T12:49:48.804Z,14.00
2018-12-12T12:52:17.491Z,7.10
2018-12-12T12:54:46.218Z,5.80
2018-12-12T12:57:14.883Z,13.20
2018-12-12T12:59:43.593Z,8.70
2018-12-12T13:02:12.303Z,5.70
2018-12-12T13:04:40.969Z,1.00
2018-12-12T13:07:09.668Z,1.00
2018-12-12T13:09:38.935Z,1.00
2018-12-12T13:12:08.007Z,1.00
2018-12-12T13:14:37.686Z,1.00
2018-12-12T13:17:06.389Z,1.00
2018-12-12T13:19:35.059Z,1.00
2018-12-12T13:22:03.714Z,1.00
2018-12-12T13:24:32.380Z,1.00
2018-12-12T13:27:01.090Z,5.60
2018-12-12T13:29:29.804Z,5.60
2018-12-12T13:31:58.472Z,14.10
2018-12-12T13:34:27.171Z,14.70
2018-12-12T13:36:55.866Z,11.50
2018-12-12T13:39:24.549Z,1.00
2018-12-12T13:41:53.220Z,1.00
2018-12-12T13:44:22.071Z,1.00
2018-12-12T13:46:50.756Z,1.00
2018-12-12T13:49:19.458Z,1.00
2018-12-12T13:51:48.151Z,1.00
2018-12-12T13:54:16.859Z,1.00
2018-12-12T13:56:45.585Z,1.00
2018-12-12T13:59:14.283Z,1.00
2018-12-12T14:01:43.075Z,1.00
2018-12-12T14:04:11.788Z,1.00
2018-12-12T14:06:40.480Z,1.00
2018-12-12T14:09:09.239Z,1.00
2018-12-12T14:11:37.971Z,1.00
2018-12-12T14:14:06.666Z,1.00
2018-12-12T14:16:35.383Z,1.00
2018-12-12T14:19:04.088Z,1.00
2018-12-12T14:21:33.022Z,1.00
2018-12-12T14:24:01.795Z,1.00
2018-12-12T14:26:30.549Z,1.00
2018-12-12T14:28:59.257Z,1.00
2018-12-12T14:31:27.977Z,1.00
2018-12-12T14:33:56.725Z,1.00
2018-12-12T14:36:25.437Z,1.00
2018-12-12T14:38:54.211Z,1.00
2018-12-12T14:41:23.034Z,1.00
2018-12-12T14:43:51.747Z,1.00
2018-12-12T14:46:20.499Z,1.00
2018-12-12T14:48:49.211Z,1.00
2018-12-12T14:51:17.960Z,1.00
2018-12-12T14:53:46.710Z,1.00
2018-12-12T14:56:15.395Z,1.00
2018-12-12T14:58:44.170Z,1.00
2018-12-12T15:01:13.176Z,1.00
2018-12-12T15:03:41.925Z,1.00
2018-12-12T15:06:10.656Z,1.00
2018-12-12T15:08:39.390Z,1.00
2018-12-12T15:11:08.265Z,1.00
2018-12-12T15:13:36.995Z,1.00
2018-12-12T15:16:05.727Z,1.00
2018-12-12T15:18:34.418Z,1.00
2018-12-12T15:21:03.157Z,1.00
2018-12-12T15:23:31.828Z,1.00
2018-12-12T15:26:00.585Z,1.00
2018-12-12T15:28:29.343Z,1.00
2018-12-12T15:30:58.096Z,1.00
2018-12-12T15:33:26.898Z,1.00
2018-12-12T15:35:55.641Z,1.00
2018-12-12T15:38:24.328Z,1.00
2018-12-12T15:40:53.112Z,1.00
2018-12-12T15:43:21.871Z,1.00
2018-12-12T15:45:50.611Z,1.00
2018-12-12T15:48:19.341Z,1.00
2018-12-12T15:50:48.065Z,1.00
2018-12-12T15:53:17.571Z,1.00
2018-12-12T15:55:46.274Z,1.00
2018-12-12T15:58:14.990Z,1.00
2018-12-12T16:00:44.145Z,1.00
2018-12-12T16:03:13.155Z,1.00
2018-12-12T16:05:41.820Z,1.00
2018-12-12T16:08:10.525Z,1.00
2018-12-12T16:10:39.226Z,1.00
2018-12-12T16:13:07.942Z,1.00
2018-12-12T16:15:36.652Z,1.00
2018-12-12T16:18:05.660Z,1.00
2018-12-12T16:20:34.394Z,1.00
2018-12-12T16:23:03.766Z,1.00
2018-12-12T16:25:32.930Z,1.00
2018-12-12T16:28:01.654Z,1.00
2018-12-12T16:30:30.355Z,1.00
2018-12-12T16:33:00.198Z,1.00
2018-12-12T16:35:29.194Z,1.00
2018-12-12T16:37:57.895Z,1.00
2018-12-12T16:40:26.613Z,1.00
2018-12-12T16:42:55.371Z,1.00
2018-12-12T16:45:24.102Z,1.00
2018-12-12T16:47:52.862Z,1.00
2018-12-12T16:50:21.572Z,1.00
2018-12-12T16:52:50.272Z,1.00
2018-12-12T16:55:19.015Z,5.20
2018-12-12T16:57:47.754Z,7.70
2018-12-12T17:00:16.533Z,17.40
2018-12-12T17:02:45.278Z,24.10
2018-12-12T17:05:14.016Z,23.60
2018-12-12T17:07:42.827Z,28.60
2018-12-12T17:10:11.551Z,27.40
2018-12-12T17:12:40.352Z,16.90
2018-12-12T17:15:09.238Z,14.50
2018-12-12T17:17:37.929Z,13.00
2018-12-12T17:20:07.846Z,15.10
2018-12-12T17:22:36.736Z,19.60
2018-12-12T17:25:05.437Z,17.90
2018-12-12T17:27:34.111Z,1.00
2018-12-12T17:30:02.787Z,1.00
2018-12-12T17:32:31.485Z,1.50
2018-12-12T17:35:01.463Z,1.00
2018-12-12T17:37:30.173Z,1.00
2018-12-12T17:39:58.899Z,1.00
2018-12-12T17:42:27.584Z,1.00
2018-12-12T17:44:56.321Z,1.00
2018-12-12T17:47:25.008Z,1.00
2018-12-12T17:49:53.754Z,1.00
2018-12-12T17:52:22.607Z,1.00
2018-12-12T17:54:51.384Z,1.00
2018-12-12T17:57:20.119Z,1.00
2018-12-12T17:59:48.816Z,1.00
2018-12-12T18:02:17.530Z,1.00
2018-12-12T18:04:46.221Z,1.00
2018-12-12T18:07:14.929Z,1.00
2018-12-12T18:09:43.646Z,1.00
2018-12-12T18:12:12.379Z,1.00
2018-12-12T18:14:41.040Z,1.00
2018-12-12T18:17:09.772Z,1.00
2018-12-12T18:19:38.470Z,1.00
2018-12-12T18:22:07.160Z,1.00
2018-12-12T18:24:35.870Z,1.00
2018-12-12T18:27:04.565Z,1.00
2018-12-12T18:29:33.412Z,1.00
2018-12-12T18:32:02.166Z,1.00
2018-12-12T18:34:30.892Z,1.00
2018-12-12T18:36:59.568Z,1.00
2018-12-12T18:39:28.470Z,1.00
2018-12-12T18:41:57.197Z,1.00
2018-12-12T18:44:25.921Z,5.10
2018-12-12T18:46:54.644Z,4.00
2018-12-12T18:49:23.689Z,7.90
2018-12-12T18:51:52.433Z,13.60
2018-12-12T18:54:21.152Z,15.90
2018-12-12T18:56:50.009Z,19.30
2018-12-12T18:59:18.816Z,20.60
2018-12-12T19:01:47.547Z,23.90
2018-12-12T19:04:16.252Z,27.80
2018-12-12T19:06:45.025Z,30.60
2018-12-12T19:09:13.810Z,27.90
2018-12-12T19:11:44.548Z,29.50
2018-12-12T19:14:13.401Z,25.80
2018-12-12T19:16:42.108Z,30.70
2018-12-12T19:19:10.772Z,31.50
2018-12-12T19:21:39.455Z,33.10
2018-12-12T19:24:08.173Z,31.80
2018-12-12T19:26:37.217Z,35.50
2018-12-12T19:29:05.932Z,30.00
2018-12-12T19:31:34.615Z,31.10
2018-12-12T19:34:03.324Z,32.50
2018-12-12T19:36:32.141Z,35.00
2018-12-12T19:39:00.853Z,35.80
2018-12-12T19:41:29.612Z,35.70
2018-12-12T19:43:58.425Z,79.70
2018-12-12T19:46:27.185Z,39.20
2018-12-12T19:48:55.999Z,20.10
2018-12-12T19:51:24.708Z,18.00
2018-12-12T19:53:53.421Z,25.10
2018-12-12T19:56:22.142Z,23.70
2018-12-12T19:58:50.922Z,27.50
2018-12-12T20:01:20.185Z,27.00
2018-12-12T20:03:48.954Z,21.10
2018-12-12T20:06:17.673Z,25.00
2018-12-12T20:08:46.421Z,28.80
2018-12-12T20:11:15.180Z,27.10
2018-12-12T20:13:43.870Z,29.90
2018-12-12T20:16:12.594Z,31.30
2018-12-12T20:18:41.310Z,26.70
2018-12-12T20:21:10.036Z,27.20
2018-12-12T20:23:38.920Z,27.00
2018-12-12T20:26:07.605Z,26.40
2018-12-12T20:28:36.350Z,24.20
2018-12-12T20:31:05.125Z,20.20
2018-12-12T20:33:33.969Z,25.60
2018-12-12T20:36:02.733Z,25.50
2018-12-12T20:38:31.682Z,31.90
2018-12-12T20:41:00.372Z,26.80
2018-12-12T20:43:30.667Z,30.20
2018-12-12T20:46:00.239Z,31.50
2018-12-12T20:48:28.916Z,33.30
2018-12-12T20:50:57.655Z,33.30
2018-12-12T20:53:26.720Z,28.50
2018-12-12T20:55:55.441Z,32.10
2018-12-12T20:58:24.258Z,36.60
2018-12-12T21:00:52.928Z,32.40
2018-12-12T21:03:21.648Z,34.30
2018-12-12T21:05:54.470Z,33.20
2018-12-12T21:08:21.690Z,38.50
2018-12-12T21:10:50.433Z,42.00
2018-12-12T21:13:19.209Z,42.50
2018-12-12T21:15:48.093Z,44.80
2018-12-12T21:18:16.800Z,44.40
2018-12-12T21:20:45.603Z,46.10
2018-12-12T21:23:14.373Z,48.00
2018-12-12T21:25:43.585Z,46.20
2018-12-12T21:28:15.747Z,53.00
2018-12-12T21:30:44.493Z,56.20
2018-12-12T21:33:13.170Z,54.60
2018-12-12T21:35:42.516Z,59.40
2018-12-12T21:38:11.189Z,59.90
2018-12-12T21:40:39.904Z,61.40
2018-12-12T21:43:08.646Z,62.30
2018-12-12T21:45:37.866Z,60.00
2018-12-12T21:48:06.767Z,57.40
2018-12-12T21:50:35.498Z,60.80
2018-12-12T21:53:04.242Z,56.80
2018-12-12T21:55:32.983Z,53.90
2018-12-12T21:58:01.727Z,55.50
2018-12-12T22:00:30.504Z,56.00
2018-12-12T22:02:59.413Z,54.10
2018-12-12T22:05:28.178Z,56.00
2018-12-12T22:07:56.992Z,54.00
2018-12-12T22:10:25.958Z,55.80
2018-12-12T22:12:54.647Z,54.50
2018-12-12T22:15:23.395Z,59.10
2018-12-12T22:17:52.075Z,67.80
2018-12-12T22:20:20.837Z,73.30
2018-12-12T22:22:49.564Z,74.60
2018-12-12T22:25:18.414Z,78.00
2018-12-12T22:27:47.287Z,79.10
2018-12-12T22:30:16.021Z,78.00
2018-12-12T22:32:44.773Z,83.50
2018-12-12T22:35:13.472Z,85.50
2018-12-12T22:37:42.313Z,82.70
2018-12-12T22:40:11.065Z,83.10
2018-12-12T22:42:40.014Z,89.00
2018-12-12T22:45:09.082Z,88.90
2018-12-12T22:47:37.817Z,90.50
2018-12-12T22:50:06.637Z,90.80
2018-12-12T22:52:35.406Z,88.90
2018-12-12T22:55:04.548Z,90.70
2018-12-12T22:57:33.260Z,91.50
2018-12-12T23:00:01.961Z,93.30
2018-12-12T23:02:30.933Z,93.30
2018-12-12T23:04:59.636Z,94.40
2018-12-12T23:07:28.364Z,95.80
2018-12-12T23:09:57.044Z,96.20
2018-12-12T23:12:25.832Z,96.30
2018-12-12T23:14:54.561Z,98.10
2018-12-12T23:17:23.243Z,97.30
2018-12-12T23:19:52.020Z,97.80
2018-12-12T23:22:20.741Z,98.30
2018-12-12T23:24:49.449Z,99.50
2018-12-12T23:27:18.155Z,99.70
2018-12-12T23:29:46.879Z,99.90
2018-12-12T23:32:15.609Z,99.90
2018-12-12T23:34:44.364Z,99.90
2018-12-12T23:37:13.272Z,99.90
2018-12-12T23:39:41.953Z,99.90
2018-12-12T23:42:10.728Z,99.90
2018-12-12T23:44:39.574Z,99.40
2018-12-12T23:47:08.471Z,99.80
2018-12-12T23:49:37.302Z,99.90
2018-12-12T23:52:06.013Z,99.90
2018-12-12T23:54:34.753Z,99.90
2018-12-12T23:57:03.488Z,99.90
2018-12-12T23:59:32.200Z,99.90
